Thunder radar more information blitzortung!


Radar de pluja more information rain snow radar


Visita la nostra xarxa de llocs de meteo:

Template documentation
and downloads

And another site



No particular awareness of the weather is required.    There are no Weather-warnings

Pagina Historial Weather Underground text

Diari Resum February 18, 2016 Unitats:  Mètric    Imperial   Tant
« Previous Dia
SegĂźent Dia »
Diari Setmana Mensual Anual Personalitzada
  Maxima: Minima: Media:
Temperatura: 10.4 °C 2.4 °C 8.1 °C
Punt de rosada: -2.3 °C -12.3 °C -3.8 °C
Humitat: 50 % 33 % 43 %
Wind Speed: 10.3 km/h 0.0 km/h 3.4 km/h
RĂ fegues de vent: 10.3 km/h - -
Vent:- - SE
Pression baro: 1022.9 hPa 996.8 hPa -
Precipitacions: 0.0 mm    
Historical Graphs
 
 
Dades de taula per February 18, 2016
Temps Temperatura Punt de rosada Pression baro Vent Wind Speed RĂ fegues de vent Humitat Rainfall Rate (Hourly)
10:56 2.4 °C -12.3 °C 996.8 hPa NNE 10.0 km/h 10.0 km/h 33 % 0.0 mm
11:01 6.6 °C -4.8 °C 1017.8 hPa NNE 5.6 km/h 5.6 km/h 44 % 0.0 mm
11:11 6.6 °C -4.8 °C 1018.8 hPa NNE 7.4 km/h 7.4 km/h 44 % 0.0 mm
11:16 6.7 °C -4.7 °C 1018.8 hPa North 7.4 km/h 7.4 km/h 44 % 0.0 mm
11:21 6.7 °C -5.0 °C 1017.8 hPa NE 7.6 km/h 7.6 km/h 43 % 0.0 mm
11:26 6.5 °C -5.2 °C 1017.8 hPa NNE 7.4 km/h 7.4 km/h 43 % 0.0 mm
11:31 6.6 °C -5.1 °C 1017.8 hPa NNE 9.5 km/h 9.5 km/h 43 % 0.0 mm
11:36 6.6 °C -5.1 °C 1017.8 hPa East 10.3 km/h 10.3 km/h 43 % 0.0 mm
11:41 6.6 °C -5.1 °C 1017.8 hPa ENE 6.9 km/h 6.9 km/h 43 % 0.0 mm
11:46 6.7 °C -5.0 °C 1017.8 hPa ENE 2.6 km/h 2.6 km/h 43 % 0.0 mm
11:56 6.6 °C -5.4 °C 1018.8 hPa NNE 9.3 km/h 9.3 km/h 42 % 0.0 mm
12:01 6.7 °C -5.3 °C 1018.8 hPa NW 9.3 km/h 9.3 km/h 42 % 0.0 mm
12:06 6.8 °C -5.2 °C 1018.8 hPa NE 5.6 km/h 5.6 km/h 42 % 0.0 mm
12:11 6.9 °C -5.2 °C 1018.8 hPa NNE 6.1 km/h 6.1 km/h 42 % 0.0 mm
12:16 6.9 °C -5.2 °C 1018.8 hPa NNE 5.6 km/h 5.6 km/h 42 % 0.0 mm
12:21 6.9 °C -5.2 °C 1018.8 hPa NNE 6.1 km/h 6.1 km/h 42 % 0.0 mm
12:26 6.9 °C -5.2 °C 1018.8 hPa ENE 7.4 km/h 7.4 km/h 42 % 0.0 mm
12:31 6.9 °C -5.2 °C 1018.8 hPa NNE 9.3 km/h 9.3 km/h 42 % 0.0 mm
12:36 6.9 °C -5.2 °C 1019.9 hPa WNW 7.4 km/h 7.4 km/h 42 % 0.0 mm
12:41 7.0 °C -5.1 °C 1019.9 hPa NNE 9.3 km/h 9.3 km/h 42 % 0.0 mm
12:46 7.0 °C -5.1 °C 1019.9 hPa WNW 3.7 km/h 3.7 km/h 42 % 0.0 mm
12:51 7.1 °C -4.9 °C 1018.8 hPa NNE 3.7 km/h 3.7 km/h 42 % 0.0 mm
12:56 7.2 °C -4.9 °C 1018.8 hPa ENE 5.6 km/h 5.6 km/h 42 % 0.0 mm
13:01 7.2 °C -4.9 °C 1018.8 hPa NE 3.7 km/h 3.7 km/h 42 % 0.0 mm
13:06 7.3 °C -4.8 °C 1018.8 hPa NNE 3.7 km/h 3.7 km/h 42 % 0.0 mm
13:11 7.4 °C -4.7 °C 1018.8 hPa NNE 4.2 km/h 4.2 km/h 42 % 0.0 mm
13:21 7.5 °C -4.6 °C 1018.8 hPa ENE 3.7 km/h 3.7 km/h 42 % 0.0 mm
13:26 7.6 °C -4.5 °C 1018.8 hPa ENE 5.0 km/h 5.0 km/h 42 % 0.0 mm
13:36 7.7 °C -4.4 °C 1018.8 hPa NE 7.4 km/h 7.4 km/h 42 % 0.0 mm
13:41 7.9 °C -4.6 °C 1018.8 hPa NNE 5.6 km/h 5.6 km/h 41 % 0.0 mm
13:46 8.0 °C -4.2 °C 1018.8 hPa ENE 5.6 km/h 5.6 km/h 42 % 0.0 mm
13:51 8.3 °C -3.9 °C 1018.8 hPa NNE 5.6 km/h 5.6 km/h 42 % 0.0 mm
13:56 8.5 °C -3.7 °C 1018.8 hPa NNE 4.2 km/h 4.2 km/h 42 % 0.0 mm
14:01 8.7 °C -3.5 °C 1018.8 hPa NNE 5.0 km/h 5.0 km/h 42 % 0.0 mm
14:06 8.8 °C -3.4 °C 1017.8 hPa NE 5.6 km/h 5.6 km/h 42 % 0.0 mm
14:11 9.0 °C -3.2 °C 1017.8 hPa WNW 3.7 km/h 3.7 km/h 42 % 0.0 mm
14:16 9.1 °C -3.2 °C 1017.8 hPa NNE 9.3 km/h 9.3 km/h 42 % 0.0 mm
14:21 9.2 °C -3.1 °C 1016.8 hPa ENE 9.3 km/h 9.3 km/h 42 % 0.0 mm
14:26 9.0 °C -3.6 °C 1016.8 hPa East 5.6 km/h 5.6 km/h 41 % 0.0 mm
14:31 9.0 °C -3.6 °C 1016.8 hPa ENE 5.6 km/h 5.6 km/h 41 % 0.0 mm
14:36 9.1 °C -3.5 °C 1017.8 hPa ENE 9.3 km/h 9.3 km/h 41 % 0.0 mm
14:41 9.2 °C -3.1 °C 1017.8 hPa NNE 5.6 km/h 5.6 km/h 42 % 0.0 mm
14:46 9.2 °C -3.4 °C 1017.8 hPa ENE 7.4 km/h 7.4 km/h 41 % 0.0 mm
14:51 9.3 °C -3.3 °C 1017.8 hPa NNE 5.6 km/h 5.6 km/h 41 % 0.0 mm
14:56 9.4 °C -3.2 °C 1017.8 hPa ENE 5.6 km/h 5.6 km/h 41 % 0.0 mm
15:01 9.6 °C -3.1 °C 1017.8 hPa NNE 5.6 km/h 5.6 km/h 41 % 0.0 mm
15:06 9.4 °C -3.2 °C 1017.8 hPa NNE 9.3 km/h 9.3 km/h 41 % 0.0 mm
15:11 9.4 °C -3.2 °C 1017.8 hPa North 7.4 km/h 7.4 km/h 41 % 0.0 mm
15:16 9.6 °C -3.1 °C 1017.8 hPa East 5.6 km/h 5.6 km/h 41 % 0.0 mm
15:21 9.6 °C -3.1 °C 1017.8 hPa NE 7.6 km/h 7.6 km/h 41 % 0.0 mm
15:26 9.5 °C -3.1 °C 1017.8 hPa ENE 5.6 km/h 5.6 km/h 41 % 0.0 mm
15:31 9.6 °C -3.1 °C 1017.8 hPa NNE 4.2 km/h 4.2 km/h 41 % 0.0 mm
15:36 9.5 °C -3.1 °C 1017.8 hPa SSW 3.2 km/h 3.2 km/h 41 % 0.0 mm
15:41 9.7 °C -2.9 °C 1017.8 hPa ESE 2.6 km/h   41 % 0.0 mm
15:46 9.9 °C -2.8 °C 1017.8 hPa ENE 5.6 km/h 5.6 km/h 41 % 0.0 mm
15:51 9.8 °C -2.8 °C 1017.8 hPa SSW 5.6 km/h 5.6 km/h 41 % 0.0 mm
15:56 9.8 °C -3.2 °C 1017.8 hPa South 3.7 km/h 3.7 km/h 40 % 0.0 mm
16:01 10.0 °C -2.7 °C 1017.8 hPa SW 3.7 km/h 3.7 km/h 41 % 0.0 mm
16:06 10.3 °C -2.4 °C 1017.8 hPa South 1.9 km/h 1.9 km/h 41 % 0.0 mm
16:11 10.4 °C -2.3 °C 1017.8 hPa WSW 5.6 km/h 5.6 km/h 41 % 0.0 mm
16:21 10.3 °C -2.7 °C 1017.8 hPa SW 5.6 km/h 5.6 km/h 40 % 0.0 mm
16:31 10.1 °C -2.9 °C 1017.8 hPa SSE 1.9 km/h   40 % 0.0 mm
16:36 10.3 °C -2.7 °C 1018.8 hPa SW 1.9 km/h 1.9 km/h 40 % 0.0 mm
16:41 10.4 °C -2.7 °C 1018.8 hPa WSW 3.7 km/h 3.7 km/h 40 % 0.0 mm
16:46 10.4 °C -2.7 °C 1018.8 hPa Calm     40 % 0.0 mm
16:51 10.4 °C -2.7 °C 1018.8 hPa SW 1.9 km/h   40 % 0.0 mm
16:56 10.4 °C -2.7 °C 1018.8 hPa South 2.3 km/h 2.3 km/h 40 % 0.0 mm
17:01 10.2 °C -2.8 °C 1018.8 hPa WSW 4.7 km/h 4.7 km/h 40 % 0.0 mm
17:06 10.1 °C -2.9 °C 1018.8 hPa WSW 4.2 km/h 4.2 km/h 40 % 0.0 mm
17:11 10.1 °C -2.9 °C 1018.8 hPa WSW 3.7 km/h 3.7 km/h 40 % 0.0 mm
17:16 10.1 °C -2.9 °C 1018.8 hPa WSW 3.7 km/h 3.7 km/h 40 % 0.0 mm
17:21 10.0 °C -3.0 °C 1018.8 hPa WSW 3.7 km/h 3.7 km/h 40 % 0.0 mm
17:26 9.9 °C -3.1 °C 1018.8 hPa SW 1.9 km/h   40 % 0.0 mm
17:31 10.0 °C -3.0 °C 1018.8 hPa Calm     40 % 0.0 mm
17:36 10.0 °C -3.0 °C 1019.9 hPa Calm     40 % 0.0 mm
17:41 10.0 °C -3.0 °C 1019.9 hPa WSW 1.9 km/h   40 % 0.0 mm
17:46 10.0 °C -3.0 °C 1019.9 hPa Calm     40 % 0.0 mm
17:51 10.0 °C -3.0 °C 1019.9 hPa Calm     40 % 0.0 mm
17:56 9.9 °C -3.1 °C 1019.9 hPa Calm     40 % 0.0 mm
18:01 9.8 °C -3.2 °C 1019.9 hPa Calm     40 % 0.0 mm
18:06 9.7 °C -3.3 °C 1019.9 hPa Calm     40 % 0.0 mm
18:11 9.6 °C -3.3 °C 1019.9 hPa Calm     40 % 0.0 mm
18:16 9.6 °C -3.3 °C 1019.9 hPa Calm     40 % 0.0 mm
18:21 9.5 °C -3.4 °C 1019.9 hPa Calm     40 % 0.0 mm
18:26 9.5 °C -3.4 °C 1019.9 hPa Calm     40 % 0.0 mm
18:31 9.4 °C -3.6 °C 1019.9 hPa Calm     40 % 0.0 mm
18:36 9.3 °C -3.6 °C 1019.9 hPa Calm     40 % 0.0 mm
18:46 9.2 °C -3.4 °C 1019.9 hPa WSW 2.3 km/h 2.3 km/h 41 % 0.0 mm
18:56 9.1 °C -3.5 °C 1019.9 hPa Calm     41 % 0.0 mm
19:01 9.1 °C -3.5 °C 1019.9 hPa Calm     41 % 0.0 mm
19:06 9.0 °C -3.6 °C 1019.9 hPa Calm     41 % 0.0 mm
19:11 9.1 °C -3.5 °C 1019.9 hPa Calm     41 % 0.0 mm
19:16 9.0 °C -3.6 °C 1019.9 hPa SW 3.7 km/h 3.7 km/h 41 % 0.0 mm
19:21 8.8 °C -3.8 °C 1020.9 hPa WSW 3.2 km/h 3.2 km/h 41 % 0.0 mm
19:31 8.8 °C -3.8 °C 1020.9 hPa SW 3.7 km/h 3.7 km/h 41 % 0.0 mm
19:36 8.7 °C -3.5 °C 1019.9 hPa WSW 3.9 km/h 3.9 km/h 42 % 0.0 mm
19:41 8.7 °C -3.5 °C 1019.9 hPa WSW 1.9 km/h   42 % 0.0 mm
19:46 8.7 °C -3.5 °C 1019.9 hPa Calm     42 % 0.0 mm
19:51 8.6 °C -3.6 °C 1020.9 hPa East 3.2 km/h 3.2 km/h 42 % 0.0 mm
19:56 8.6 °C -3.6 °C 1020.9 hPa Calm     42 % 0.0 mm
20:06 8.5 °C -3.4 °C 1021.9 hPa SSE 5.0 km/h   43 % 0.0 mm
20:11 8.5 °C -3.4 °C 1021.9 hPa SW 1.9 km/h   43 % 0.0 mm
20:16 8.5 °C -3.4 °C 1021.9 hPa WSW 3.7 km/h   43 % 0.0 mm
20:21 8.5 °C -3.4 °C 1021.9 hPa SW 3.7 km/h 3.7 km/h 43 % 0.0 mm
20:26 8.5 °C -3.4 °C 1021.9 hPa WSW 1.9 km/h   43 % 0.0 mm
20:36 8.4 °C -3.5 °C 1020.9 hPa WSW 1.9 km/h   43 % 0.0 mm
20:41 8.2 °C -3.7 °C 1020.9 hPa WSW 1.9 km/h   43 % 0.0 mm
20:46 8.1 °C -3.7 °C 1020.9 hPa Calm     43 % 0.0 mm
20:56 7.9 °C -3.6 °C 1021.9 hPa Calm     44 % 0.0 mm
21:01 7.7 °C -3.8 °C 1021.9 hPa Calm     44 % 0.0 mm
21:06 7.6 °C -3.9 °C 1021.9 hPa WSW 1.4 km/h   44 % 0.0 mm
21:11 7.5 °C -3.7 °C 1021.9 hPa West 1.9 km/h   45 % 0.0 mm
21:16 7.4 °C -3.8 °C 1021.9 hPa Calm     45 % 0.0 mm
21:21 7.3 °C -3.6 °C 1021.9 hPa Calm     46 % 0.0 mm
21:26 7.2 °C -3.7 °C 1021.9 hPa NE 1.4 km/h   46 % 0.0 mm
21:31 7.1 °C -3.8 °C 1021.9 hPa NE 1.9 km/h 1.9 km/h 46 % 0.0 mm
21:36 7.0 °C -3.8 °C 1020.9 hPa ENE 3.7 km/h 3.7 km/h 46 % 0.0 mm
21:46 6.8 °C -4.1 °C 1020.9 hPa Calm     46 % 0.0 mm
21:56 6.7 °C -3.8 °C 1021.9 hPa Calm     47 % 0.0 mm
22:01 6.6 °C -3.9 °C 1021.9 hPa Calm     47 % 0.0 mm
22:06 6.5 °C -4.0 °C 1022.9 hPa Calm     47 % 0.0 mm
22:11 6.5 °C -4.0 °C 1022.9 hPa WSW 3.7 km/h 3.7 km/h 47 % 0.0 mm
22:16 6.4 °C -4.1 °C 1021.9 hPa WSW 1.9 km/h 1.9 km/h 47 % 0.0 mm
22:21 6.4 °C -4.1 °C 1021.9 hPa WSW 1.9 km/h   47 % 0.0 mm
22:26 6.3 °C -4.2 °C 1021.9 hPa Calm     47 % 0.0 mm
22:31 6.2 °C -4.0 °C 1021.9 hPa Calm     48 % 0.0 mm
22:36 6.1 °C -4.1 °C 1022.9 hPa Calm     48 % 0.0 mm
22:41 6.1 °C -4.1 °C 1022.9 hPa WSW 3.2 km/h 3.2 km/h 48 % 0.0 mm
22:46 5.9 °C -4.3 °C 1022.9 hPa WSW 2.3 km/h 2.3 km/h 48 % 0.0 mm
22:51 5.9 °C -4.3 °C 1021.9 hPa WSW 1.9 km/h 1.9 km/h 48 % 0.0 mm
22:56 5.8 °C -4.1 °C 1021.9 hPa Calm     49 % 0.0 mm
23:01 5.7 °C -4.2 °C 1021.9 hPa Calm     49 % 0.0 mm
23:06 5.6 °C -4.3 °C 1021.9 hPa Calm     49 % 0.0 mm
23:11 5.6 °C -4.3 °C 1021.9 hPa Calm     49 % 0.0 mm
23:16 5.6 °C -4.3 °C 1021.9 hPa Calm     49 % 0.0 mm
23:21 5.6 °C -4.3 °C 1022.9 hPa Calm     49 % 0.0 mm
23:26 5.6 °C -4.3 °C 1022.9 hPa West 3.7 km/h 3.7 km/h 49 % 0.0 mm
23:31 5.6 °C -4.0 °C 1022.9 hPa WNW 1.9 km/h   50 % 0.0 mm
23:36 5.6 °C -4.0 °C 1022.9 hPa NE 1.9 km/h   50 % 0.0 mm
23:41 5.5 °C -4.1 °C 1022.9 hPa Calm     50 % 0.0 mm
23:46 5.4 °C -4.2 °C 1022.9 hPa Calm     50 % 0.0 mm
23:51 5.4 °C -4.2 °C 1022.9 hPa Calm     50 % 0.0 mm
23:56 5.3 °C -4.3 °C 1022.9 hPa NE 1.9 km/h 1.9 km/h 50 % 0.0 mm
Meteo Sesrovires
Elogis d' Weather Underground - 3.25 mb

Guio original per  Jim McMurry - jmcmurry@mwt.net Adaptat per a la plantilla per  Wim van der Kuil - Leuven-Template.eu

Trobareu la nostra informacio del temps tambe a:

Weather Underground

AWEKAS